• Join FlightAware (Why Join?)
  • Login
  • US Flag 
10:22AM EDT


 

Airport Tracker/Info


-or-


 

Live Flight TrackerFlight Track Log ✈ PDT4373 ✈ 13-Oct-2013 ✈ KPHL - KBGM

Flight Track Log - Related Links

Times and Time Zones

All times are in EDT time to prevent confusion due to time zone crossing. See the PDT4373 flight status page for this flight to view local times or setup timezone preferences in your user account.

Time Position Orientation Groundspeed Altitude Reporting Facility
EDT Latitude Longitude Course Direction KTS MPH feet Rate Location/Type
09:26AM 39.8833 -75.2000 311° West 107 123 1,100  Level Philadelphia TRACON
09:27AM 39.9000 -75.2000 360° North 117 135 1,700 1,500 Climbing Philadelphia TRACON
09:28AM 39.9333 -75.1667 37° Northeast 141 162 3,200 1,380 Climbing Philadelphia TRACON
09:29AM 40.0975 -75.3098 323° Northwest  Level Estimated
09:29AM 39.9667 -75.1500 21° North 161 185 4,500  Level Philadelphia TRACON
09:30AM 40.1725 -75.3328 311° West  Level Estimated
09:30AM 40.0167 -75.1667 346° North 157 181 5,800  Level Philadelphia TRACON
09:31AM 40.2476 -75.3560 311° West  Level Estimated
09:31AM 40.0500 -75.1667 360° North 156 180 7,000  Level Philadelphia TRACON
09:32AM 40.0833 -75.2167 311° West 183 211 8,000 1,020 Climbing Philadelphia TRACON
09:33AM 40.1000 -75.2667 294° West 187 215 9,100 1,080 Climbing Philadelphia TRACON
09:34AM 40.1333 -75.3333 303° West 192 221 10,200 960 Climbing Philadelphia TRACON
09:35AM 40.1614 -75.4236 292° West 202 232 11,500 720 Climbing New York Center
09:36AM 40.1842 -75.4819 297° West 207 238 12,000 240 Climbing New York Center
09:37AM 40.2206 -75.5606 301° West 220 253 12,000  Level New York Center
09:38AM 40.2636 -75.6289 310° West 237 273 12,000  Level New York Center
09:39AM 40.3108 -75.6975 312° West 244 281 12,000  Level New York Center
09:40AM 40.3519 -75.7578 312° West 249 287 12,000  Level New York Center
09:41AM 40.4172 -75.7925 338° Northwest 244 281 12,000  Level New York Center
09:42AM 40.4911 -75.8225 343° North 250 288 12,000  Level New York Center
09:43AM 40.5542 -75.8544 339° North 245 282 12,000  Level New York Center
09:44AM 40.6194 -75.8864 340° North 245 282 12,000  Level New York Center
09:45AM 40.6767 -75.9156 339° North 245 282 12,000  Level New York Center
09:46AM 40.7417 -75.9531 336° Northwest 250 288 12,000  Level New York Center
09:47AM 40.8150 -75.9917 338° Northwest 250 288 12,000  Level New York Center
09:48AM 40.8778 -76.0294 336° Northwest 250 288 12,000  Level New York Center
09:49AM 40.9347 -76.0614 337° Northwest 250 288 12,000  Level New York Center
09:50AM 41.0025 -76.0886 343° North 250 288 12,000  Level New York Center
09:51AM 41.0736 -76.1272 338° Northwest 245 282 12,000  Level New York Center
09:52AM 41.1386 -76.1625 338° Northwest 250 288 12,000  Level New York Center
09:53AM 41.2036 -76.1981 338° Northwest 250 288 12,000  Level New York Center
09:54AM 41.2658 -76.2031 357° North 245 282 12,000  Level New York Center
09:55AM 41.3372 -76.1950 North 240 276 12,000  Level New York Center
09:56AM 41.4142 -76.1983 358° North 245 282 12,000  Level New York Center
09:57AM 41.4850 -76.1931 North 252 290 12,000  Level New York Center
09:58AM 41.5564 -76.1850 North 252 290 12,000 -300 Level New York Center
09:59AM 41.6211 -76.1792 North 258 297 11,400 -840 Descending New York Center
10:00AM 41.6983 -76.1744 North 265 305 10,400 -1,080 Descending New York Center
10:01AM 41.7861 -76.1703 North 275 316 9,300 -1,140 Descending New York Center
10:02AM 41.8611 -76.1653 North 275 316 8,200 -1,140 Descending New York Center
10:03AM 41.9367 -76.1519 North 275 316 7,100 -1,200 Descending New York Center
10:04AM 42.0014 -76.1489 North 270 311 5,800 -1,380 Descending New York Center
10:05AM 42.0744 -76.1436 North 270 311 4,400 -900 Descending New York Center
10:06AM 42.1461 -76.1242 11° North 265 305 4,000 -300 Descending New York Center
10:07AM 42.2100 -76.0958 18° North 254 292 3,900 -300 Descending New York Center
10:08AM 42.2414 -76.0422 52° Northeast 204 235 3,400 -900 Descending New York Center
10:09AM 42.2369 -76.0028 99° East 119 137 2,200 -1,200 Descending New York Center